sensor_id;sensor_type;location;lat;lon;timestamp;P1;durP1;ratioP1;P2;durP2;ratioP2
215;SDS011;64590;48.81286795;9.14184224;2023-02-28T00:01:38;9.60;;;4.95;;
215;SDS011;64590;48.81286795;9.14184224;2023-02-28T00:04:04;10.82;;;5.00;;
215;SDS011;64590;48.81286795;9.14184224;2023-02-28T00:06:31;11.80;;;5.32;;
215;SDS011;64590;48.81286795;9.14184224;2023-02-28T00:08:57;8.68;;;4.85;;
215;SDS011;64590;48.81286795;9.14184224;2023-02-28T00:11:24;8.43;;;4.65;;
215;SDS011;64590;48.81286795;9.14184224;2023-02-28T00:13:52;8.73;;;4.97;;
215;SDS011;64590;48.81286795;9.14184224;2023-02-28T00:16:19;9.18;;;5.00;;
215;SDS011;64590;48.81286795;9.14184224;2023-02-28T00:18:48;10.35;;;5.03;;
215;SDS011;64590;48.81286795;9.14184224;2023-02-28T00:21:14;8.60;;;4.70;;
215;SDS011;64590;48.81286795;9.14184224;2023-02-28T00:23:42;10.82;;;5.15;;
215;SDS011;64590;48.81286795;9.14184224;2023-02-28T00:26:08;12.38;;;5.03;;
215;SDS011;64590;48.81286795;9.14184224;2023-02-28T00:28:36;8.90;;;5.25;;
215;SDS011;64590;48.81286795;9.14184224;2023-02-28T00:31:04;8.15;;;4.72;;
215;SDS011;64590;48.81286795;9.14184224;2023-02-28T00:33:30;9.75;;;5.13;;
215;SDS011;64590;48.81286795;9.14184224;2023-02-28T00:36:04;10.35;;;5.10;;
215;SDS011;64590;48.81286795;9.14184224;2023-02-28T00:38:34;8.75;;;5.28;;
215;SDS011;64590;48.81286795;9.14184224;2023-02-28T00:41:01;9.13;;;5.07;;
215;SDS011;64590;48.81286795;9.14184224;2023-02-28T00:43:30;11.88;;;5.63;;
215;SDS011;64590;48.81286795;9.14184224;2023-02-28T00:45:57;10.90;;;5.30;;
215;SDS011;64590;48.81286795;9.14184224;2023-02-28T00:48:25;11.13;;;5.63;;
215;SDS011;64590;48.81286795;9.14184224;2023-02-28T00:50:52;9.50;;;5.40;;
215;SDS011;64590;48.81286795;9.14184224;2023-02-28T00:53:19;9.70;;;4.82;;
215;SDS011;64590;48.81286795;9.14184224;2023-02-28T00:55:46;9.52;;;5.05;;
215;SDS011;64590;48.81286795;9.14184224;2023-02-28T00:58:12;9.52;;;5.20;;
215;SDS011;64590;48.81286795;9.14184224;2023-02-28T01:00:39;10.05;;;5.55;;
215;SDS011;64590;48.81286795;9.14184224;2023-02-28T01:03:05;10.90;;;5.53;;
215;SDS011;64590;48.81286795;9.14184224;2023-02-28T01:05:33;11.52;;;5.72;;
215;SDS011;64590;48.81286795;9.14184224;2023-02-28T01:08:00;10.93;;;5.60;;
215;SDS011;64590;48.81286795;9.14184224;2023-02-28T01:10:27;10.57;;;5.50;;
215;SDS011;64590;48.81286795;9.14184224;2023-02-28T01:12:56;10.98;;;5.43;;
215;SDS011;64590;48.81286795;9.14184224;2023-02-28T01:15:23;11.88;;;5.93;;
215;SDS011;64590;48.81286795;9.14184224;2023-02-28T01:17:49;11.70;;;5.50;;
215;SDS011;64590;48.81286795;9.14184224;2023-02-28T01:20:16;11.93;;;5.85;;
215;SDS011;64590;48.81286795;9.14184224;2023-02-28T01:22:44;14.52;;;6.15;;
215;SDS011;64590;48.81286795;9.14184224;2023-02-28T01:25:11;10.68;;;5.43;;
215;SDS011;64590;48.81286795;9.14184224;2023-02-28T01:27:38;10.95;;;6.07;;
215;SDS011;64590;48.81286795;9.14184224;2023-02-28T01:30:05;12.60;;;5.93;;
215;SDS011;64590;48.81286795;9.14184224;2023-02-28T01:32:34;9.57;;;5.65;;
215;SDS011;64590;48.81286795;9.14184224;2023-02-28T01:35:01;11.70;;;6.00;;
215;SDS011;64590;48.81286795;9.14184224;2023-02-28T01:37:27;10.88;;;5.93;;
215;SDS011;64590;48.81286795;9.14184224;2023-02-28T01:39:55;11.45;;;6.00;;
215;SDS011;64590;48.81286795;9.14184224;2023-02-28T01:42:22;11.35;;;5.90;;
215;SDS011;64590;48.81286795;9.14184224;2023-02-28T01:44:59;10.80;;;5.75;;
215;SDS011;64590;48.81286795;9.14184224;2023-02-28T01:47:30;12.25;;;6.60;;
215;SDS011;64590;48.81286795;9.14184224;2023-02-28T01:50:01;11.57;;;5.88;;
215;SDS011;64590;48.81286795;9.14184224;2023-02-28T01:52:30;11.93;;;5.95;;
215;SDS011;64590;48.81286795;9.14184224;2023-02-28T01:54:59;11.82;;;6.47;;
215;SDS011;64590;48.81286795;9.14184224;2023-02-28T01:57:29;12.32;;;6.40;;
215;SDS011;64590;48.81286795;9.14184224;2023-02-28T02:00:04;12.18;;;6.75;;
215;SDS011;64590;48.81286795;9.14184224;2023-02-28T02:02:45;15.65;;;6.95;;
215;SDS011;64590;48.81286795;9.14184224;2023-02-28T02:05:16;11.65;;;6.50;;
215;SDS011;64590;48.81286795;9.14184224;2023-02-28T02:07:45;11.02;;;6.00;;
215;SDS011;64590;48.81286795;9.14184224;2023-02-28T02:10:15;17.25;;;7.25;;
215;SDS011;64590;48.81286795;9.14184224;2023-02-28T02:12:50;12.90;;;6.68;;
215;SDS011;64590;48.81286795;9.14184224;2023-02-28T02:15:34;13.07;;;6.60;;
215;SDS011;64590;48.81286795;9.14184224;2023-02-28T02:18:07;16.02;;;7.10;;
215;SDS011;64590;48.81286795;9.14184224;2023-02-28T02:27:28;12.80;;;7.00;;
215;SDS011;64590;48.81286795;9.14184224;2023-02-28T02:33:03;14.27;;;6.32;;
215;SDS011;64590;48.81286795;9.14184224;2023-02-28T02:35:39;14.20;;;6.82;;
215;SDS011;64590;48.81286795;9.14184224;2023-02-28T02:38:09;12.98;;;7.05;;
215;SDS011;64590;48.81286795;9.14184224;2023-02-28T02:40:43;12.95;;;6.47;;
215;SDS011;64590;48.81286795;9.14184224;2023-02-28T02:43:22;13.70;;;7.15;;
215;SDS011;64590;48.81286795;9.14184224;2023-02-28T02:45:56;11.55;;;6.72;;
215;SDS011;64590;48.81286795;9.14184224;2023-02-28T02:48:29;12.82;;;6.75;;
215;SDS011;64590;48.81286795;9.14184224;2023-02-28T02:51:00;11.57;;;6.43;;
215;SDS011;64590;48.81286795;9.14184224;2023-02-28T02:53:30;23.63;;;7.22;;
215;SDS011;64590;48.81286795;9.14184224;2023-02-28T02:56:01;14.65;;;7.28;;
215;SDS011;64590;48.81286795;9.14184224;2023-02-28T02:58:31;14.35;;;6.75;;
215;SDS011;64590;48.81286795;9.14184224;2023-02-28T03:01:02;13.43;;;6.65;;
215;SDS011;64590;48.81286795;9.14184224;2023-02-28T03:03:31;18.38;;;7.55;;
215;SDS011;64590;48.81286795;9.14184224;2023-02-28T03:06:00;17.45;;;7.25;;
215;SDS011;64590;48.81286795;9.14184224;2023-02-28T03:08:29;14.23;;;7.25;;
215;SDS011;64590;48.81286795;9.14184224;2023-02-28T03:11:01;13.82;;;6.95;;
215;SDS011;64590;48.81286795;9.14184224;2023-02-28T03:13:48;14.32;;;7.25;;
215;SDS011;64590;48.81286795;9.14184224;2023-02-28T03:16:35;16.05;;;7.00;;
215;SDS011;64590;48.81286795;9.14184224;2023-02-28T03:19:15;14.70;;;7.00;;
215;SDS011;64590;48.81286795;9.14184224;2023-02-28T03:22:10;16.67;;;7.60;;
215;SDS011;64590;48.81286795;9.14184224;2023-02-28T03:24:45;14.10;;;7.50;;
215;SDS011;64590;48.81286795;9.14184224;2023-02-28T03:27:21;13.20;;;7.35;;
215;SDS011;64590;48.81286795;9.14184224;2023-02-28T03:29:55;16.45;;;8.02;;
215;SDS011;64590;48.81286795;9.14184224;2023-02-28T03:32:28;15.18;;;7.93;;
215;SDS011;64590;48.81286795;9.14184224;2023-02-28T03:35:00;15.60;;;8.10;;
215;SDS011;64590;48.81286795;9.14184224;2023-02-28T03:37:35;15.48;;;8.25;;
215;SDS011;64590;48.81286795;9.14184224;2023-02-28T03:40:05;14.48;;;7.90;;
215;SDS011;64590;48.81286795;9.14184224;2023-02-28T03:42:38;14.07;;;7.40;;
215;SDS011;64590;48.81286795;9.14184224;2023-02-28T03:45:09;13.77;;;7.38;;
215;SDS011;64590;48.81286795;9.14184224;2023-02-28T03:47:40;14.82;;;8.23;;
215;SDS011;64590;48.81286795;9.14184224;2023-02-28T03:50:11;17.48;;;7.97;;
215;SDS011;64590;48.81286795;9.14184224;2023-02-28T03:52:44;14.40;;;7.75;;
215;SDS011;64590;48.81286795;9.14184224;2023-02-28T03:55:15;13.98;;;7.78;;
215;SDS011;64590;48.81286795;9.14184224;2023-02-28T03:57:49;14.93;;;7.70;;
215;SDS011;64590;48.81286795;9.14184224;2023-02-28T04:00:25;16.33;;;7.85;;
215;SDS011;64590;48.81286795;9.14184224;2023-02-28T04:02:56;14.55;;;7.80;;
215;SDS011;64590;48.81286795;9.14184224;2023-02-28T04:05:23;20.77;;;8.02;;
215;SDS011;64590;48.81286795;9.14184224;2023-02-28T04:07:52;14.38;;;7.80;;
215;SDS011;64590;48.81286795;9.14184224;2023-02-28T04:10:19;15.98;;;8.60;;
215;SDS011;64590;48.81286795;9.14184224;2023-02-28T04:12:46;17.65;;;8.02;;
215;SDS011;64590;48.81286795;9.14184224;2023-02-28T04:15:12;14.77;;;8.40;;
215;SDS011;64590;48.81286795;9.14184224;2023-02-28T04:17:39;14.20;;;7.95;;
215;SDS011;64590;48.81286795;9.14184224;2023-02-28T04:20:06;15.90;;;8.30;;
215;SDS011;64590;48.81286795;9.14184224;2023-02-28T04:22:35;16.63;;;8.38;;
215;SDS011;64590;48.81286795;9.14184224;2023-02-28T04:25:04;14.63;;;8.13;;
215;SDS011;64590;48.81286795;9.14184224;2023-02-28T04:27:32;16.30;;;8.10;;
215;SDS011;64590;48.81286795;9.14184224;2023-02-28T04:29:59;14.60;;;7.40;;
215;SDS011;64590;48.81286795;9.14184224;2023-02-28T04:32:25;17.00;;;8.23;;
215;SDS011;64590;48.81286795;9.14184224;2023-02-28T04:34:52;14.68;;;7.90;;
215;SDS011;64590;48.81286795;9.14184224;2023-02-28T04:37:18;16.35;;;8.30;;
215;SDS011;64590;48.81286795;9.14184224;2023-02-28T04:39:45;14.43;;;7.72;;
215;SDS011;64590;48.81286795;9.14184224;2023-02-28T04:42:13;18.50;;;8.30;;
215;SDS011;64590;48.81286795;9.14184224;2023-02-28T04:44:39;15.85;;;8.45;;
215;SDS011;64590;48.81286795;9.14184224;2023-02-28T04:47:06;20.17;;;8.55;;
215;SDS011;64590;48.81286795;9.14184224;2023-02-28T04:49:33;16.20;;;8.30;;
215;SDS011;64590;48.81286795;9.14184224;2023-02-28T04:51:59;15.25;;;8.32;;
215;SDS011;64590;48.81286795;9.14184224;2023-02-28T04:54:26;15.88;;;8.43;;
215;SDS011;64590;48.81286795;9.14184224;2023-02-28T04:56:53;16.85;;;8.40;;
215;SDS011;64590;48.81286795;9.14184224;2023-02-28T04:59:21;15.63;;;8.27;;
215;SDS011;64590;48.81286795;9.14184224;2023-02-28T05:01:48;15.68;;;8.40;;
215;SDS011;64590;48.81286795;9.14184224;2023-02-28T05:04:15;15.88;;;8.13;;
215;SDS011;64590;48.81286795;9.14184224;2023-02-28T05:06:42;18.38;;;8.93;;
215;SDS011;64590;48.81286795;9.14184224;2023-02-28T05:09:09;20.30;;;9.90;;
215;SDS011;64590;48.81286795;9.14184224;2023-02-28T05:11:37;18.63;;;8.65;;
215;SDS011;64590;48.81286795;9.14184224;2023-02-28T05:14:05;16.25;;;8.60;;
215;SDS011;64590;48.81286795;9.14184224;2023-02-28T05:16:33;16.20;;;7.90;;
215;SDS011;64590;48.81286795;9.14184224;2023-02-28T05:19:00;16.25;;;8.00;;
215;SDS011;64590;48.81286795;9.14184224;2023-02-28T05:21:28;18.45;;;8.98;;
215;SDS011;64590;48.81286795;9.14184224;2023-02-28T05:23:57;17.63;;;8.60;;
215;SDS011;64590;48.81286795;9.14184224;2023-02-28T05:26:25;16.75;;;9.35;;
215;SDS011;64590;48.81286795;9.14184224;2023-02-28T05:28:52;18.42;;;9.10;;
215;SDS011;64590;48.81286795;9.14184224;2023-02-28T05:31:20;17.45;;;8.77;;
215;SDS011;64590;48.81286795;9.14184224;2023-02-28T05:33:48;18.02;;;8.90;;
215;SDS011;64590;48.81286795;9.14184224;2023-02-28T05:36:15;18.92;;;9.60;;
215;SDS011;64590;48.81286795;9.14184224;2023-02-28T05:38:42;17.35;;;8.80;;
215;SDS011;64590;48.81286795;9.14184224;2023-02-28T05:41:09;16.33;;;8.60;;
215;SDS011;64590;48.81286795;9.14184224;2023-02-28T05:43:36;16.83;;;9.13;;
215;SDS011;64590;48.81286795;9.14184224;2023-02-28T05:46:04;19.55;;;8.88;;
215;SDS011;64590;48.81286795;9.14184224;2023-02-28T05:48:31;16.75;;;8.82;;
215;SDS011;64590;48.81286795;9.14184224;2023-02-28T05:50:59;18.23;;;7.97;;
215;SDS011;64590;48.81286795;9.14184224;2023-02-28T05:53:27;16.80;;;8.70;;
215;SDS011;64590;48.81286795;9.14184224;2023-02-28T05:55:54;18.70;;;9.25;;
215;SDS011;64590;48.81286795;9.14184224;2023-02-28T05:58:21;16.50;;;8.50;;
215;SDS011;64590;48.81286795;9.14184224;2023-02-28T06:00:48;16.80;;;9.50;;
215;SDS011;64590;48.81286795;9.14184224;2023-02-28T06:03:15;19.45;;;9.30;;
215;SDS011;64590;48.81286795;9.14184224;2023-02-28T06:05:41;15.45;;;8.32;;
215;SDS011;64590;48.81286795;9.14184224;2023-02-28T06:08:09;19.48;;;9.45;;
215;SDS011;64590;48.81286795;9.14184224;2023-02-28T06:10:36;24.83;;;9.50;;
215;SDS011;64590;48.81286795;9.14184224;2023-02-28T06:13:03;17.90;;;8.75;;
215;SDS011;64590;48.81286795;9.14184224;2023-02-28T06:15:30;18.27;;;8.88;;
215;SDS011;64590;48.81286795;9.14184224;2023-02-28T06:17:57;17.88;;;8.63;;
215;SDS011;64590;48.81286795;9.14184224;2023-02-28T06:20:25;18.88;;;8.57;;
215;SDS011;64590;48.81286795;9.14184224;2023-02-28T06:22:54;19.58;;;8.98;;
215;SDS011;64590;48.81286795;9.14184224;2023-02-28T06:25:22;17.55;;;9.13;;
215;SDS011;64590;48.81286795;9.14184224;2023-02-28T06:27:49;17.73;;;8.50;;
215;SDS011;64590;48.81286795;9.14184224;2023-02-28T06:30:15;18.52;;;8.90;;
215;SDS011;64590;48.81286795;9.14184224;2023-02-28T06:32:43;16.70;;;8.80;;
215;SDS011;64590;48.81286795;9.14184224;2023-02-28T06:35:09;18.25;;;8.95;;
215;SDS011;64590;48.81286795;9.14184224;2023-02-28T06:37:36;18.80;;;9.30;;
215;SDS011;64590;48.81286795;9.14184224;2023-02-28T06:40:03;19.10;;;9.15;;
215;SDS011;64590;48.81286795;9.14184224;2023-02-28T06:42:33;19.00;;;8.68;;
215;SDS011;64590;48.81286795;9.14184224;2023-02-28T06:44:59;18.48;;;8.73;;
215;SDS011;64590;48.81286795;9.14184224;2023-02-28T06:47:30;19.08;;;9.60;;
215;SDS011;64590;48.81286795;9.14184224;2023-02-28T06:49:56;18.23;;;8.95;;
215;SDS011;64590;48.81286795;9.14184224;2023-02-28T06:52:23;17.17;;;9.55;;
215;SDS011;64590;48.81286795;9.14184224;2023-02-28T06:54:50;19.73;;;9.90;;
215;SDS011;64590;48.81286795;9.14184224;2023-02-28T06:57:25;21.55;;;9.82;;
215;SDS011;64590;48.81286795;9.14184224;2023-02-28T06:59:52;19.70;;;9.50;;
215;SDS011;64590;48.81286795;9.14184224;2023-02-28T07:02:19;19.52;;;9.35;;
215;SDS011;64590;48.81286795;9.14184224;2023-02-28T07:04:45;20.42;;;9.73;;
215;SDS011;64590;48.81286795;9.14184224;2023-02-28T07:07:12;20.85;;;9.75;;
215;SDS011;64590;48.81286795;9.14184224;2023-02-28T07:09:39;20.02;;;9.88;;
215;SDS011;64590;48.81286795;9.14184224;2023-02-28T07:12:05;18.13;;;9.20;;
215;SDS011;64590;48.81286795;9.14184224;2023-02-28T07:14:32;20.40;;;9.65;;
215;SDS011;64590;48.81286795;9.14184224;2023-02-28T07:17:00;19.63;;;9.55;;
215;SDS011;64590;48.81286795;9.14184224;2023-02-28T07:19:26;21.10;;;10.10;;
215;SDS011;64590;48.81286795;9.14184224;2023-02-28T07:21:53;21.20;;;9.82;;
215;SDS011;64590;48.81286795;9.14184224;2023-02-28T07:24:19;20.48;;;9.80;;
215;SDS011;64590;48.81286795;9.14184224;2023-02-28T07:26:48;19.27;;;9.77;;
215;SDS011;64590;48.81286795;9.14184224;2023-02-28T07:29:15;21.80;;;9.95;;
215;SDS011;64590;48.81286795;9.14184224;2023-02-28T07:31:41;21.30;;;9.70;;
215;SDS011;64590;48.81286795;9.14184224;2023-02-28T07:34:09;23.17;;;9.57;;
215;SDS011;64590;48.81286795;9.14184224;2023-02-28T07:36:36;22.05;;;9.73;;
215;SDS011;64590;48.81286795;9.14184224;2023-02-28T07:39:02;22.83;;;9.85;;
215;SDS011;64590;48.81286795;9.14184224;2023-02-28T07:41:29;20.10;;;9.48;;
215;SDS011;64590;48.81286795;9.14184224;2023-02-28T07:43:59;23.17;;;10.32;;
215;SDS011;64590;48.81286795;9.14184224;2023-02-28T07:46:26;19.40;;;9.88;;
215;SDS011;64590;48.81286795;9.14184224;2023-02-28T07:48:54;21.15;;;10.48;;
215;SDS011;64590;48.81286795;9.14184224;2023-02-28T07:51:25;20.17;;;10.27;;
215;SDS011;64590;48.81286795;9.14184224;2023-02-28T07:53:52;20.80;;;10.50;;
215;SDS011;64590;48.81286795;9.14184224;2023-02-28T07:56:19;22.08;;;10.15;;
215;SDS011;64590;48.81286795;9.14184224;2023-02-28T07:58:45;28.10;;;10.23;;
215;SDS011;64590;48.81286795;9.14184224;2023-02-28T08:01:12;20.27;;;9.80;;
215;SDS011;64590;48.81286795;9.14184224;2023-02-28T08:03:39;20.90;;;11.02;;
215;SDS011;64590;48.81286795;9.14184224;2023-02-28T08:06:07;24.60;;;10.52;;
215;SDS011;64590;48.81286795;9.14184224;2023-02-28T08:08:42;23.42;;;9.80;;
215;SDS011;64590;48.81286795;9.14184224;2023-02-28T08:11:09;18.77;;;9.73;;
215;SDS011;64590;48.81286795;9.14184224;2023-02-28T08:13:36;22.33;;;10.55;;
215;SDS011;64590;48.81286795;9.14184224;2023-02-28T08:16:02;22.52;;;10.45;;
215;SDS011;64590;48.81286795;9.14184224;2023-02-28T08:18:29;18.92;;;10.20;;
215;SDS011;64590;48.81286795;9.14184224;2023-02-28T08:20:56;22.17;;;10.35;;
215;SDS011;64590;48.81286795;9.14184224;2023-02-28T08:23:22;20.10;;;10.10;;
215;SDS011;64590;48.81286795;9.14184224;2023-02-28T08:25:54;20.75;;;10.25;;
215;SDS011;64590;48.81286795;9.14184224;2023-02-28T08:28:20;21.75;;;10.57;;
215;SDS011;64590;48.81286795;9.14184224;2023-02-28T08:30:47;23.63;;;10.93;;
215;SDS011;64590;48.81286795;9.14184224;2023-02-28T08:33:14;21.85;;;10.88;;
215;SDS011;64590;48.81286795;9.14184224;2023-02-28T08:35:40;20.88;;;10.52;;
215;SDS011;64590;48.81286795;9.14184224;2023-02-28T08:38:07;21.63;;;10.70;;
215;SDS011;64590;48.81286795;9.14184224;2023-02-28T08:40:34;24.10;;;11.13;;
215;SDS011;64590;48.81286795;9.14184224;2023-02-28T08:43:01;24.60;;;10.38;;
215;SDS011;64590;48.81286795;9.14184224;2023-02-28T08:45:28;22.17;;;11.10;;
215;SDS011;64590;48.81286795;9.14184224;2023-02-28T08:47:54;24.08;;;11.20;;
215;SDS011;64590;48.81286795;9.14184224;2023-02-28T08:50:21;20.77;;;10.90;;
215;SDS011;64590;48.81286795;9.14184224;2023-02-28T08:52:48;23.17;;;12.65;;
215;SDS011;64590;48.81286795;9.14184224;2023-02-28T08:55:15;22.95;;;11.75;;
215;SDS011;64590;48.81286795;9.14184224;2023-02-28T08:57:41;21.27;;;11.00;;
215;SDS011;64590;48.81286795;9.14184224;2023-02-28T09:00:10;23.42;;;11.65;;
215;SDS011;64590;48.81286795;9.14184224;2023-02-28T09:02:38;25.13;;;11.30;;
215;SDS011;64590;48.81286795;9.14184224;2023-02-28T09:05:05;24.70;;;11.93;;
215;SDS011;64590;48.81286795;9.14184224;2023-02-28T09:07:32;27.35;;;12.63;;
215;SDS011;64590;48.81286795;9.14184224;2023-02-28T09:09:59;23.25;;;11.48;;
215;SDS011;64590;48.81286795;9.14184224;2023-02-28T09:12:26;26.48;;;12.10;;
215;SDS011;64590;48.81286795;9.14184224;2023-02-28T09:14:54;25.25;;;11.57;;
215;SDS011;64590;48.81286795;9.14184224;2023-02-28T09:17:21;24.90;;;12.60;;
215;SDS011;64590;48.81286795;9.14184224;2023-02-28T09:19:48;22.13;;;12.02;;
215;SDS011;64590;48.81286795;9.14184224;2023-02-28T09:22:15;27.17;;;12.63;;
215;SDS011;64590;48.81286795;9.14184224;2023-02-28T09:24:42;23.75;;;11.68;;
215;SDS011;64590;48.81286795;9.14184224;2023-02-28T09:27:09;27.35;;;11.63;;
215;SDS011;64590;48.81286795;9.14184224;2023-02-28T09:29:36;24.33;;;12.75;;
215;SDS011;64590;48.81286795;9.14184224;2023-02-28T09:32:03;23.38;;;12.65;;
215;SDS011;64590;48.81286795;9.14184224;2023-02-28T09:34:32;25.20;;;12.30;;
215;SDS011;64590;48.81286795;9.14184224;2023-02-28T09:36:59;25.27;;;12.38;;
215;SDS011;64590;48.81286795;9.14184224;2023-02-28T09:39:25;30.85;;;13.23;;
215;SDS011;64590;48.81286795;9.14184224;2023-02-28T09:41:53;24.05;;;12.20;;
215;SDS011;64590;48.81286795;9.14184224;2023-02-28T09:44:23;25.48;;;12.05;;
215;SDS011;64590;48.81286795;9.14184224;2023-02-28T09:46:56;26.02;;;12.55;;
215;SDS011;64590;48.81286795;9.14184224;2023-02-28T09:49:28;24.80;;;11.52;;
215;SDS011;64590;48.81286795;9.14184224;2023-02-28T09:52:04;28.85;;;12.38;;
215;SDS011;64590;48.81286795;9.14184224;2023-02-28T09:54:34;28.33;;;12.15;;
215;SDS011;64590;48.81286795;9.14184224;2023-02-28T09:57:04;25.50;;;12.35;;
215;SDS011;64590;48.81286795;9.14184224;2023-02-28T09:59:39;28.20;;;13.10;;
215;SDS011;64590;48.81286795;9.14184224;2023-02-28T10:02:20;24.60;;;11.68;;
215;SDS011;64590;48.81286795;9.14184224;2023-02-28T10:05:02;29.75;;;13.10;;
215;SDS011;64590;48.81286795;9.14184224;2023-02-28T10:07:37;27.75;;;12.60;;
215;SDS011;64590;48.81286795;9.14184224;2023-02-28T10:10:18;23.48;;;12.20;;
215;SDS011;64590;48.81286795;9.14184224;2023-02-28T10:12:47;23.60;;;12.00;;
215;SDS011;64590;48.81286795;9.14184224;2023-02-28T10:15:18;28.23;;;12.55;;
215;SDS011;64590;48.81286795;9.14184224;2023-02-28T10:17:49;28.50;;;13.02;;
215;SDS011;64590;48.81286795;9.14184224;2023-02-28T10:20:22;24.40;;;13.23;;
215;SDS011;64590;48.81286795;9.14184224;2023-02-28T10:22:57;27.80;;;12.27;;
215;SDS011;64590;48.81286795;9.14184224;2023-02-28T10:25:32;26.63;;;12.88;;
215;SDS011;64590;48.81286795;9.14184224;2023-02-28T10:28:00;26.05;;;12.20;;
215;SDS011;64590;48.81286795;9.14184224;2023-02-28T10:30:36;27.13;;;13.30;;
215;SDS011;64590;48.81286795;9.14184224;2023-02-28T10:33:05;25.38;;;13.30;;
215;SDS011;64590;48.81286795;9.14184224;2023-02-28T10:35:35;25.67;;;13.40;;
215;SDS011;64590;48.81286795;9.14184224;2023-02-28T10:38:04;25.63;;;13.20;;
215;SDS011;64590;48.81286795;9.14184224;2023-02-28T10:40:42;22.67;;;12.50;;
215;SDS011;64590;48.81286795;9.14184224;2023-02-28T10:43:17;26.83;;;14.07;;
215;SDS011;64590;48.81286795;9.14184224;2023-02-28T10:45:52;31.75;;;12.90;;
215;SDS011;64590;48.81286795;9.14184224;2023-02-28T10:48:29;25.95;;;13.82;;
215;SDS011;64590;48.81286795;9.14184224;2023-02-28T10:51:00;23.42;;;12.70;;
215;SDS011;64590;48.81286795;9.14184224;2023-02-28T10:53:33;27.60;;;13.60;;
215;SDS011;64590;48.81286795;9.14184224;2023-02-28T10:56:04;26.02;;;13.52;;
215;SDS011;64590;48.81286795;9.14184224;2023-02-28T10:58:42;24.63;;;13.45;;
215;SDS011;64590;48.81286795;9.14184224;2023-02-28T11:01:14;24.42;;;13.35;;
215;SDS011;64590;48.81286795;9.14184224;2023-02-28T11:03:42;25.27;;;12.88;;
215;SDS011;64590;48.81286795;9.14184224;2023-02-28T11:06:14;25.33;;;13.43;;
215;SDS011;64590;48.81286795;9.14184224;2023-02-28T11:08:44;25.52;;;14.05;;
215;SDS011;64590;48.81286795;9.14184224;2023-02-28T11:11:13;27.05;;;14.18;;
215;SDS011;64590;48.81286795;9.14184224;2023-02-28T11:13:42;25.00;;;13.05;;
215;SDS011;64590;48.81286795;9.14184224;2023-02-28T11:16:12;25.42;;;13.45;;
215;SDS011;64590;48.81286795;9.14184224;2023-02-28T11:18:41;26.70;;;13.57;;
215;SDS011;64590;48.81286795;9.14184224;2023-02-28T11:21:16;31.33;;;14.10;;
215;SDS011;64590;48.81286795;9.14184224;2023-02-28T11:23:46;28.95;;;14.48;;
215;SDS011;64590;48.81286795;9.14184224;2023-02-28T11:26:15;24.70;;;13.52;;
215;SDS011;64590;48.81286795;9.14184224;2023-02-28T11:29:03;25.75;;;13.73;;
215;SDS011;64590;48.81286795;9.14184224;2023-02-28T11:31:37;26.27;;;14.25;;
215;SDS011;64590;48.81286795;9.14184224;2023-02-28T11:34:10;28.52;;;14.00;;
215;SDS011;64590;48.81286795;9.14184224;2023-02-28T11:36:55;28.55;;;13.60;;
215;SDS011;64590;48.81286795;9.14184224;2023-02-28T11:39:23;27.25;;;14.32;;
215;SDS011;64590;48.81286795;9.14184224;2023-02-28T11:41:55;25.52;;;13.02;;
215;SDS011;64590;48.81286795;9.14184224;2023-02-28T11:44:43;27.42;;;14.05;;
215;SDS011;64590;48.81286795;9.14184224;2023-02-28T11:47:27;25.60;;;14.23;;
215;SDS011;64590;48.81286795;9.14184224;2023-02-28T11:50:04;25.50;;;14.02;;
215;SDS011;64590;48.81286795;9.14184224;2023-02-28T11:52:45;25.83;;;13.65;;
215;SDS011;64590;48.81286795;9.14184224;2023-02-28T11:55:17;23.55;;;13.68;;
215;SDS011;64590;48.81286795;9.14184224;2023-02-28T11:57:59;25.15;;;13.65;;
215;SDS011;64590;48.81286795;9.14184224;2023-02-28T12:00:39;25.00;;;13.55;;
215;SDS011;64590;48.81286795;9.14184224;2023-02-28T12:03:19;25.65;;;14.65;;
215;SDS011;64590;48.81286795;9.14184224;2023-02-28T12:05:56;26.63;;;14.23;;
215;SDS011;64590;48.81286795;9.14184224;2023-02-28T12:08:47;25.33;;;14.10;;
215;SDS011;64590;48.81286795;9.14184224;2023-02-28T12:11:23;25.40;;;13.63;;
215;SDS011;64590;48.81286795;9.14184224;2023-02-28T12:14:06;23.43;;;13.20;;
215;SDS011;64590;48.81286795;9.14184224;2023-02-28T12:16:50;24.10;;;13.40;;
215;SDS011;64590;48.81286795;9.14184224;2023-02-28T12:19:26;22.10;;;13.07;;
215;SDS011;64590;48.81286795;9.14184224;2023-02-28T12:22:10;23.95;;;14.05;;
215;SDS011;64590;48.81286795;9.14184224;2023-02-28T12:25:04;23.75;;;14.48;;
215;SDS011;64590;48.81286795;9.14184224;2023-02-28T12:27:47;22.30;;;13.45;;
215;SDS011;64590;48.81286795;9.14184224;2023-02-28T12:30:16;24.30;;;13.10;;
215;SDS011;64590;48.81286795;9.14184224;2023-02-28T12:32:48;23.00;;;14.40;;
215;SDS011;64590;48.81286795;9.14184224;2023-02-28T12:35:19;23.07;;;13.47;;
215;SDS011;64590;48.81286795;9.14184224;2023-02-28T12:37:50;30.10;;;14.13;;
215;SDS011;64590;48.81286795;9.14184224;2023-02-28T12:40:25;22.80;;;13.45;;
215;SDS011;64590;48.81286795;9.14184224;2023-02-28T12:42:55;23.93;;;13.60;;
215;SDS011;64590;48.81286795;9.14184224;2023-02-28T12:45:25;21.40;;;13.07;;
215;SDS011;64590;48.81286795;9.14184224;2023-02-28T12:47:59;21.43;;;13.23;;
215;SDS011;64590;48.81286795;9.14184224;2023-02-28T12:50:29;23.97;;;14.10;;
215;SDS011;64590;48.81286795;9.14184224;2023-02-28T12:52:58;24.08;;;13.55;;
215;SDS011;64590;48.81286795;9.14184224;2023-02-28T12:55:31;27.23;;;13.57;;
215;SDS011;64590;48.81286795;9.14184224;2023-02-28T12:58:08;24.97;;;12.87;;
215;SDS011;64590;48.81286795;9.14184224;2023-02-28T13:00:43;22.42;;;12.25;;
215;SDS011;64590;48.81286795;9.14184224;2023-02-28T13:03:37;26.02;;;12.63;;
215;SDS011;64590;48.81286795;9.14184224;2023-02-28T13:06:20;24.02;;;12.98;;
215;SDS011;64590;48.81286795;9.14184224;2023-02-28T13:09:02;23.08;;;12.25;;
215;SDS011;64590;48.81286795;9.14184224;2023-02-28T13:11:32;24.02;;;13.32;;
215;SDS011;64590;48.81286795;9.14184224;2023-02-28T13:14:06;22.58;;;12.20;;
215;SDS011;64590;48.81286795;9.14184224;2023-02-28T13:19:37;22.27;;;13.18;;
215;SDS011;64590;48.81286795;9.14184224;2023-02-28T13:22:05;24.02;;;13.07;;
215;SDS011;64590;48.81286795;9.14184224;2023-02-28T13:24:45;25.60;;;13.13;;
215;SDS011;64590;48.81286795;9.14184224;2023-02-28T13:30:49;23.53;;;13.03;;